sensor_id;sensor_type;location;lat;lon;timestamp;P1;durP1;ratioP1;P2;durP2;ratioP2
12412;SDS011;13877;18.896;-99.222;2023-04-24T00:01:28;9.98;;;6.32;;
12412;SDS011;13877;18.896;-99.222;2023-04-24T00:03:55;15.88;;;6.72;;
12412;SDS011;13877;18.896;-99.222;2023-04-24T00:06:25;12.43;;;6.28;;
12412;SDS011;13877;18.896;-99.222;2023-04-24T00:08:59;11.43;;;6.53;;
12412;SDS011;13877;18.896;-99.222;2023-04-24T00:11:26;17.40;;;6.82;;
12412;SDS011;13877;18.896;-99.222;2023-04-24T00:13:53;12.57;;;6.70;;
12412;SDS011;13877;18.896;-99.222;2023-04-24T00:16:20;10.82;;;6.57;;
12412;SDS011;13877;18.896;-99.222;2023-04-24T00:18:48;16.52;;;7.18;;
12412;SDS011;13877;18.896;-99.222;2023-04-24T00:21:15;19.10;;;6.60;;
12412;SDS011;13877;18.896;-99.222;2023-04-24T00:23:43;14.63;;;7.07;;
12412;SDS011;13877;18.896;-99.222;2023-04-24T00:26:10;15.73;;;7.57;;
12412;SDS011;13877;18.896;-99.222;2023-04-24T00:28:37;19.02;;;7.03;;
12412;SDS011;13877;18.896;-99.222;2023-04-24T00:31:04;19.35;;;7.78;;
12412;SDS011;13877;18.896;-99.222;2023-04-24T00:33:31;13.30;;;7.47;;
12412;SDS011;13877;18.896;-99.222;2023-04-24T00:35:58;17.42;;;7.80;;
12412;SDS011;13877;18.896;-99.222;2023-04-24T00:38:25;18.98;;;8.88;;
12412;SDS011;13877;18.896;-99.222;2023-04-24T00:40:52;18.98;;;8.02;;
12412;SDS011;13877;18.896;-99.222;2023-04-24T00:43:19;20.40;;;7.85;;
12412;SDS011;13877;18.896;-99.222;2023-04-24T00:45:46;25.05;;;7.88;;
12412;SDS011;13877;18.896;-99.222;2023-04-24T00:48:14;14.98;;;7.68;;
12412;SDS011;13877;18.896;-99.222;2023-04-24T00:50:41;14.30;;;7.25;;
12412;SDS011;13877;18.896;-99.222;2023-04-24T00:53:09;15.13;;;8.07;;
12412;SDS011;13877;18.896;-99.222;2023-04-24T00:55:35;15.52;;;7.90;;
12412;SDS011;13877;18.896;-99.222;2023-04-24T00:58:03;13.90;;;7.97;;
12412;SDS011;13877;18.896;-99.222;2023-04-24T01:00:30;21.45;;;8.25;;
12412;SDS011;13877;18.896;-99.222;2023-04-24T01:02:57;23.30;;;10.75;;
12412;SDS011;13877;18.896;-99.222;2023-04-24T01:05:27;29.38;;;13.50;;
12412;SDS011;13877;18.896;-99.222;2023-04-24T01:07:56;37.85;;;16.20;;
12412;SDS011;13877;18.896;-99.222;2023-04-24T01:10:24;34.25;;;14.10;;
12412;SDS011;13877;18.896;-99.222;2023-04-24T01:12:53;19.25;;;9.35;;
12412;SDS011;13877;18.896;-99.222;2023-04-24T01:15:20;24.75;;;10.15;;
12412;SDS011;13877;18.896;-99.222;2023-04-24T01:17:49;22.13;;;9.35;;
12412;SDS011;13877;18.896;-99.222;2023-04-24T01:20:16;31.52;;;9.85;;
12412;SDS011;13877;18.896;-99.222;2023-04-24T01:22:46;22.35;;;10.45;;
12412;SDS011;13877;18.896;-99.222;2023-04-24T01:25:14;24.30;;;9.60;;
12412;SDS011;13877;18.896;-99.222;2023-04-24T01:27:41;24.00;;;9.35;;
12412;SDS011;13877;18.896;-99.222;2023-04-24T01:30:11;26.83;;;9.32;;
12412;SDS011;13877;18.896;-99.222;2023-04-24T01:32:40;25.45;;;9.55;;
12412;SDS011;13877;18.896;-99.222;2023-04-24T01:35:11;18.35;;;9.90;;
12412;SDS011;13877;18.896;-99.222;2023-04-24T01:37:38;22.33;;;9.80;;
12412;SDS011;13877;18.896;-99.222;2023-04-24T01:40:06;20.08;;;9.07;;
12412;SDS011;13877;18.896;-99.222;2023-04-24T01:42:34;27.33;;;10.95;;
12412;SDS011;13877;18.896;-99.222;2023-04-24T01:45:01;24.17;;;9.52;;
12412;SDS011;13877;18.896;-99.222;2023-04-24T01:47:30;28.60;;;10.25;;
12412;SDS011;13877;18.896;-99.222;2023-04-24T01:49:58;32.00;;;10.35;;
12412;SDS011;13877;18.896;-99.222;2023-04-24T01:52:25;17.48;;;9.32;;
12412;SDS011;13877;18.896;-99.222;2023-04-24T01:54:53;21.73;;;9.75;;
12412;SDS011;13877;18.896;-99.222;2023-04-24T01:57:22;36.15;;;9.82;;
12412;SDS011;13877;18.896;-99.222;2023-04-24T01:59:49;33.08;;;10.75;;
12412;SDS011;13877;18.896;-99.222;2023-04-24T02:02:16;29.10;;;10.82;;
12412;SDS011;13877;18.896;-99.222;2023-04-24T02:04:43;28.20;;;11.38;;
12412;SDS011;13877;18.896;-99.222;2023-04-24T02:07:10;23.20;;;10.45;;
12412;SDS011;13877;18.896;-99.222;2023-04-24T02:09:38;24.42;;;10.48;;
12412;SDS011;13877;18.896;-99.222;2023-04-24T02:12:05;18.58;;;10.45;;
12412;SDS011;13877;18.896;-99.222;2023-04-24T02:14:33;19.23;;;10.63;;
12412;SDS011;13877;18.896;-99.222;2023-04-24T02:17:00;16.50;;;10.77;;
12412;SDS011;13877;18.896;-99.222;2023-04-24T02:19:27;18.50;;;11.20;;
12412;SDS011;13877;18.896;-99.222;2023-04-24T02:21:54;26.52;;;11.57;;
12412;SDS011;13877;18.896;-99.222;2023-04-24T02:24:21;20.23;;;11.18;;
12412;SDS011;13877;18.896;-99.222;2023-04-24T02:26:48;23.30;;;11.32;;
12412;SDS011;13877;18.896;-99.222;2023-04-24T02:29:15;24.33;;;10.80;;
12412;SDS011;13877;18.896;-99.222;2023-04-24T02:31:42;24.10;;;10.90;;
12412;SDS011;13877;18.896;-99.222;2023-04-24T02:34:09;18.85;;;10.40;;
12412;SDS011;13877;18.896;-99.222;2023-04-24T02:36:36;24.77;;;11.00;;
12412;SDS011;13877;18.896;-99.222;2023-04-24T02:39:04;19.05;;;11.05;;
12412;SDS011;13877;18.896;-99.222;2023-04-24T02:41:31;20.92;;;11.23;;
12412;SDS011;13877;18.896;-99.222;2023-04-24T02:43:58;20.30;;;10.65;;
12412;SDS011;13877;18.896;-99.222;2023-04-24T02:46:25;29.38;;;11.15;;
12412;SDS011;13877;18.896;-99.222;2023-04-24T02:48:52;28.02;;;11.35;;
12412;SDS011;13877;18.896;-99.222;2023-04-24T02:51:19;20.38;;;11.55;;
12412;SDS011;13877;18.896;-99.222;2023-04-24T02:53:46;32.40;;;12.55;;
12412;SDS011;13877;18.896;-99.222;2023-04-24T02:56:13;27.40;;;12.23;;
12412;SDS011;13877;18.896;-99.222;2023-04-24T02:58:40;23.33;;;11.68;;
12412;SDS011;13877;18.896;-99.222;2023-04-24T03:01:08;21.50;;;11.98;;
12412;SDS011;13877;18.896;-99.222;2023-04-24T03:03:38;29.00;;;11.82;;
12412;SDS011;13877;18.896;-99.222;2023-04-24T03:06:05;25.77;;;11.93;;
12412;SDS011;13877;18.896;-99.222;2023-04-24T03:08:34;26.00;;;11.68;;
12412;SDS011;13877;18.896;-99.222;2023-04-24T03:11:01;25.30;;;12.07;;
12412;SDS011;13877;18.896;-99.222;2023-04-24T03:13:28;32.85;;;12.07;;
12412;SDS011;13877;18.896;-99.222;2023-04-24T03:15:55;24.67;;;12.10;;
12412;SDS011;13877;18.896;-99.222;2023-04-24T03:18:22;24.50;;;12.43;;
12412;SDS011;13877;18.896;-99.222;2023-04-24T03:20:50;41.90;;;13.15;;
12412;SDS011;13877;18.896;-99.222;2023-04-24T03:23:17;31.15;;;14.32;;
12412;SDS011;13877;18.896;-99.222;2023-04-24T03:25:45;25.35;;;14.00;;
12412;SDS011;13877;18.896;-99.222;2023-04-24T03:28:15;28.55;;;14.65;;
12412;SDS011;13877;18.896;-99.222;2023-04-24T03:30:47;40.97;;;15.90;;
12412;SDS011;13877;18.896;-99.222;2023-04-24T03:33:15;41.15;;;15.55;;
12412;SDS011;13877;18.896;-99.222;2023-04-24T03:35:53;29.27;;;14.57;;
12412;SDS011;13877;18.896;-99.222;2023-04-24T03:38:20;40.17;;;15.27;;
12412;SDS011;13877;18.896;-99.222;2023-04-24T03:40:53;28.25;;;14.57;;
12412;SDS011;13877;18.896;-99.222;2023-04-24T03:43:43;35.03;;;15.48;;
12412;SDS011;13877;18.896;-99.222;2023-04-24T03:46:10;29.65;;;15.02;;
12412;SDS011;13877;18.896;-99.222;2023-04-24T03:48:42;27.15;;;15.10;;
12412;SDS011;13877;18.896;-99.222;2023-04-24T03:51:10;29.13;;;15.80;;
12412;SDS011;13877;18.896;-99.222;2023-04-24T03:53:40;31.77;;;15.47;;
12412;SDS011;13877;18.896;-99.222;2023-04-24T03:56:08;37.72;;;16.20;;
12412;SDS011;13877;18.896;-99.222;2023-04-24T03:58:36;40.63;;;17.50;;
12412;SDS011;13877;18.896;-99.222;2023-04-24T04:01:04;37.33;;;16.05;;
12412;SDS011;13877;18.896;-99.222;2023-04-24T04:03:58;36.60;;;14.93;;
12412;SDS011;13877;18.896;-99.222;2023-04-24T04:06:26;40.03;;;15.93;;
12412;SDS011;13877;18.896;-99.222;2023-04-24T04:08:57;33.03;;;14.20;;
12412;SDS011;13877;18.896;-99.222;2023-04-24T04:11:25;29.63;;;14.85;;
12412;SDS011;13877;18.896;-99.222;2023-04-24T04:13:52;32.53;;;14.43;;
12412;SDS011;13877;18.896;-99.222;2023-04-24T04:16:21;39.13;;;15.25;;
12412;SDS011;13877;18.896;-99.222;2023-04-24T04:18:50;28.80;;;13.38;;
12412;SDS011;13877;18.896;-99.222;2023-04-24T04:21:17;37.17;;;14.68;;
12412;SDS011;13877;18.896;-99.222;2023-04-24T04:23:46;30.08;;;14.57;;
12412;SDS011;13877;18.896;-99.222;2023-04-24T04:26:26;33.15;;;14.63;;
12412;SDS011;13877;18.896;-99.222;2023-04-24T04:29:01;37.38;;;15.02;;
12412;SDS011;13877;18.896;-99.222;2023-04-24T04:31:30;30.27;;;14.93;;
12412;SDS011;13877;18.896;-99.222;2023-04-24T04:34:01;34.22;;;14.38;;
12412;SDS011;13877;18.896;-99.222;2023-04-24T04:36:30;32.63;;;13.07;;
12412;SDS011;13877;18.896;-99.222;2023-04-24T04:39:07;33.70;;;13.80;;
12412;SDS011;13877;18.896;-99.222;2023-04-24T04:41:54;28.85;;;12.45;;
12412;SDS011;13877;18.896;-99.222;2023-04-24T04:44:25;39.35;;;12.80;;
12412;SDS011;13877;18.896;-99.222;2023-04-24T04:46:53;26.27;;;12.82;;
12412;SDS011;13877;18.896;-99.222;2023-04-24T04:49:27;27.60;;;12.93;;
12412;SDS011;13877;18.896;-99.222;2023-04-24T04:51:54;34.25;;;13.27;;
12412;SDS011;13877;18.896;-99.222;2023-04-24T04:54:24;26.38;;;11.93;;
12412;SDS011;13877;18.896;-99.222;2023-04-24T04:56:51;28.45;;;11.93;;
12412;SDS011;13877;18.896;-99.222;2023-04-24T04:59:18;24.55;;;11.88;;
12412;SDS011;13877;18.896;-99.222;2023-04-24T05:01:48;22.65;;;12.32;;
12412;SDS011;13877;18.896;-99.222;2023-04-24T05:04:17;27.17;;;11.43;;
12412;SDS011;13877;18.896;-99.222;2023-04-24T05:06:44;26.20;;;11.30;;
12412;SDS011;13877;18.896;-99.222;2023-04-24T05:09:13;25.38;;;11.05;;
12412;SDS011;13877;18.896;-99.222;2023-04-24T05:11:49;30.58;;;11.63;;
12412;SDS011;13877;18.896;-99.222;2023-04-24T05:14:16;21.15;;;11.15;;
12412;SDS011;13877;18.896;-99.222;2023-04-24T05:16:45;25.13;;;11.07;;
12412;SDS011;13877;18.896;-99.222;2023-04-24T05:19:14;25.42;;;11.52;;
12412;SDS011;13877;18.896;-99.222;2023-04-24T05:21:41;21.75;;;10.85;;
12412;SDS011;13877;18.896;-99.222;2023-04-24T05:24:10;21.90;;;11.02;;
12412;SDS011;13877;18.896;-99.222;2023-04-24T05:27:01;37.13;;;12.40;;
12412;SDS011;13877;18.896;-99.222;2023-04-24T05:29:34;22.13;;;10.60;;
12412;SDS011;13877;18.896;-99.222;2023-04-24T05:32:03;24.60;;;10.85;;
12412;SDS011;13877;18.896;-99.222;2023-04-24T05:34:30;23.98;;;10.85;;
12412;SDS011;13877;18.896;-99.222;2023-04-24T05:36:58;21.05;;;10.80;;
12412;SDS011;13877;18.896;-99.222;2023-04-24T05:39:25;23.00;;;11.32;;
12412;SDS011;13877;18.896;-99.222;2023-04-24T05:41:53;18.05;;;10.75;;
12412;SDS011;13877;18.896;-99.222;2023-04-24T05:44:23;21.67;;;10.90;;
12412;SDS011;13877;18.896;-99.222;2023-04-24T05:46:51;26.20;;;11.20;;
12412;SDS011;13877;18.896;-99.222;2023-04-24T05:49:18;21.50;;;11.27;;
12412;SDS011;13877;18.896;-99.222;2023-04-24T05:51:45;25.40;;;11.20;;
12412;SDS011;13877;18.896;-99.222;2023-04-24T05:54:13;18.77;;;11.15;;
12412;SDS011;13877;18.896;-99.222;2023-04-24T05:56:40;22.55;;;10.15;;
12412;SDS011;13877;18.896;-99.222;2023-04-24T05:59:07;27.67;;;11.50;;
12412;SDS011;13877;18.896;-99.222;2023-04-24T06:01:35;18.65;;;11.43;;
12412;SDS011;13877;18.896;-99.222;2023-04-24T06:04:12;20.83;;;10.15;;
12412;SDS011;13877;18.896;-99.222;2023-04-24T06:06:39;23.48;;;10.23;;
12412;SDS011;13877;18.896;-99.222;2023-04-24T06:09:08;17.45;;;9.68;;
12412;SDS011;13877;18.896;-99.222;2023-04-24T06:11:35;21.02;;;10.05;;
12412;SDS011;13877;18.896;-99.222;2023-04-24T06:14:02;19.33;;;10.23;;
12412;SDS011;13877;18.896;-99.222;2023-04-24T06:16:40;20.13;;;10.13;;
12412;SDS011;13877;18.896;-99.222;2023-04-24T06:19:25;19.48;;;9.43;;
12412;SDS011;13877;18.896;-99.222;2023-04-24T06:21:53;20.58;;;10.20;;
12412;SDS011;13877;18.896;-99.222;2023-04-24T06:24:20;22.83;;;10.52;;
12412;SDS011;13877;18.896;-99.222;2023-04-24T06:26:47;23.92;;;10.55;;
12412;SDS011;13877;18.896;-99.222;2023-04-24T06:29:14;25.08;;;10.25;;
12412;SDS011;13877;18.896;-99.222;2023-04-24T06:31:41;17.00;;;10.15;;
12412;SDS011;13877;18.896;-99.222;2023-04-24T06:34:09;18.20;;;9.45;;
12412;SDS011;13877;18.896;-99.222;2023-04-24T06:36:36;19.73;;;9.95;;
12412;SDS011;13877;18.896;-99.222;2023-04-24T06:39:03;20.52;;;10.63;;
12412;SDS011;13877;18.896;-99.222;2023-04-24T06:41:30;22.92;;;9.80;;
12412;SDS011;13877;18.896;-99.222;2023-04-24T06:43:57;20.23;;;10.05;;
12412;SDS011;13877;18.896;-99.222;2023-04-24T06:46:24;17.70;;;10.20;;
12412;SDS011;13877;18.896;-99.222;2023-04-24T06:48:53;19.08;;;10.23;;
12412;SDS011;13877;18.896;-99.222;2023-04-24T06:51:24;22.23;;;9.95;;
12412;SDS011;13877;18.896;-99.222;2023-04-24T06:53:51;15.05;;;9.93;;
12412;SDS011;13877;18.896;-99.222;2023-04-24T06:56:19;23.52;;;10.32;;
12412;SDS011;13877;18.896;-99.222;2023-04-24T06:58:46;25.23;;;10.98;;
12412;SDS011;13877;18.896;-99.222;2023-04-24T07:01:13;24.40;;;10.68;;
12412;SDS011;13877;18.896;-99.222;2023-04-24T07:03:40;19.38;;;9.90;;
12412;SDS011;13877;18.896;-99.222;2023-04-24T07:06:07;20.67;;;10.48;;
12412;SDS011;13877;18.896;-99.222;2023-04-24T07:08:36;22.27;;;11.10;;
12412;SDS011;13877;18.896;-99.222;2023-04-24T07:11:04;23.30;;;9.63;;
12412;SDS011;13877;18.896;-99.222;2023-04-24T07:13:31;26.92;;;10.93;;
12412;SDS011;13877;18.896;-99.222;2023-04-24T07:15:58;24.02;;;9.82;;
12412;SDS011;13877;18.896;-99.222;2023-04-24T07:18:25;20.48;;;10.27;;
12412;SDS011;13877;18.896;-99.222;2023-04-24T07:20:52;21.85;;;10.32;;
12412;SDS011;13877;18.896;-99.222;2023-04-24T07:23:19;18.63;;;10.20;;
12412;SDS011;13877;18.896;-99.222;2023-04-24T07:25:46;20.83;;;10.02;;
12412;SDS011;13877;18.896;-99.222;2023-04-24T07:28:13;23.13;;;11.23;;
12412;SDS011;13877;18.896;-99.222;2023-04-24T07:30:40;22.83;;;10.23;;
12412;SDS011;13877;18.896;-99.222;2023-04-24T07:33:07;16.13;;;10.43;;
12412;SDS011;13877;18.896;-99.222;2023-04-24T07:35:34;27.13;;;9.55;;
12412;SDS011;13877;18.896;-99.222;2023-04-24T07:38:01;20.38;;;10.63;;
12412;SDS011;13877;18.896;-99.222;2023-04-24T07:40:28;21.15;;;10.15;;
12412;SDS011;13877;18.896;-99.222;2023-04-24T07:42:55;22.92;;;11.00;;
12412;SDS011;13877;18.896;-99.222;2023-04-24T07:45:22;24.52;;;10.15;;
12412;SDS011;13877;18.896;-99.222;2023-04-24T07:47:50;19.45;;;9.98;;
12412;SDS011;13877;18.896;-99.222;2023-04-24T07:50:17;18.85;;;10.15;;
12412;SDS011;13877;18.896;-99.222;2023-04-24T07:52:44;23.10;;;10.20;;
12412;SDS011;13877;18.896;-99.222;2023-04-24T07:55:11;19.52;;;10.80;;
12412;SDS011;13877;18.896;-99.222;2023-04-24T07:57:37;19.25;;;9.85;;
12412;SDS011;13877;18.896;-99.222;2023-04-24T08:00:07;19.50;;;10.50;;
12412;SDS011;13877;18.896;-99.222;2023-04-24T08:02:38;26.63;;;10.23;;
12412;SDS011;13877;18.896;-99.222;2023-04-24T08:05:05;20.05;;;10.80;;
12412;SDS011;13877;18.896;-99.222;2023-04-24T08:07:33;20.65;;;10.48;;
12412;SDS011;13877;18.896;-99.222;2023-04-24T08:10:01;18.85;;;10.65;;
12412;SDS011;13877;18.896;-99.222;2023-04-24T08:12:28;20.48;;;10.63;;
12412;SDS011;13877;18.896;-99.222;2023-04-24T08:14:55;20.05;;;11.43;;
12412;SDS011;13877;18.896;-99.222;2023-04-24T08:17:23;18.38;;;10.77;;
12412;SDS011;13877;18.896;-99.222;2023-04-24T08:19:50;21.25;;;10.50;;
12412;SDS011;13877;18.896;-99.222;2023-04-24T08:22:19;20.75;;;11.15;;
12412;SDS011;13877;18.896;-99.222;2023-04-24T08:24:46;25.30;;;10.45;;
12412;SDS011;13877;18.896;-99.222;2023-04-24T08:27:13;23.88;;;10.93;;
12412;SDS011;13877;18.896;-99.222;2023-04-24T08:29:40;25.63;;;11.38;;
12412;SDS011;13877;18.896;-99.222;2023-04-24T08:32:07;19.48;;;10.77;;
12412;SDS011;13877;18.896;-99.222;2023-04-24T08:34:34;23.33;;;11.20;;
12412;SDS011;13877;18.896;-99.222;2023-04-24T08:37:02;27.23;;;10.65;;
12412;SDS011;13877;18.896;-99.222;2023-04-24T08:39:29;22.00;;;10.82;;
12412;SDS011;13877;18.896;-99.222;2023-04-24T08:41:56;23.08;;;10.60;;
12412;SDS011;13877;18.896;-99.222;2023-04-24T08:44:32;22.48;;;10.13;;
12412;SDS011;13877;18.896;-99.222;2023-04-24T08:46:59;21.42;;;9.65;;
12412;SDS011;13877;18.896;-99.222;2023-04-24T08:49:28;23.20;;;11.38;;
12412;SDS011;13877;18.896;-99.222;2023-04-24T08:51:55;25.42;;;10.80;;
12412;SDS011;13877;18.896;-99.222;2023-04-24T08:54:23;23.38;;;10.85;;
12412;SDS011;13877;18.896;-99.222;2023-04-24T08:56:50;20.50;;;10.75;;
12412;SDS011;13877;18.896;-99.222;2023-04-24T08:59:24;23.33;;;11.25;;
12412;SDS011;13877;18.896;-99.222;2023-04-24T09:01:51;37.88;;;10.73;;
12412;SDS011;13877;18.896;-99.222;2023-04-24T09:04:21;24.08;;;10.73;;
12412;SDS011;13877;18.896;-99.222;2023-04-24T09:06:57;26.73;;;10.77;;
12412;SDS011;13877;18.896;-99.222;2023-04-24T09:09:26;23.75;;;10.98;;
12412;SDS011;13877;18.896;-99.222;2023-04-24T09:11:55;20.15;;;10.07;;
12412;SDS011;13877;18.896;-99.222;2023-04-24T09:14:23;27.23;;;11.02;;
12412;SDS011;13877;18.896;-99.222;2023-04-24T09:16:50;22.23;;;11.13;;
12412;SDS011;13877;18.896;-99.222;2023-04-24T09:19:17;24.08;;;10.98;;
12412;SDS011;13877;18.896;-99.222;2023-04-24T09:21:47;27.60;;;11.07;;
12412;SDS011;13877;18.896;-99.222;2023-04-24T09:24:15;23.50;;;10.60;;
12412;SDS011;13877;18.896;-99.222;2023-04-24T09:26:43;20.52;;;11.32;;
12412;SDS011;13877;18.896;-99.222;2023-04-24T09:29:16;25.60;;;11.20;;
12412;SDS011;13877;18.896;-99.222;2023-04-24T09:31:44;18.38;;;10.80;;
12412;SDS011;13877;18.896;-99.222;2023-04-24T09:34:12;21.05;;;10.82;;
12412;SDS011;13877;18.896;-99.222;2023-04-24T09:36:40;14.05;;;9.73;;
12412;SDS011;13877;18.896;-99.222;2023-04-24T09:39:09;17.13;;;9.48;;
12412;SDS011;13877;18.896;-99.222;2023-04-24T09:41:47;17.77;;;10.48;;
12412;SDS011;13877;18.896;-99.222;2023-04-24T09:44:21;21.17;;;10.75;;
12412;SDS011;13877;18.896;-99.222;2023-04-24T09:46:51;17.75;;;11.00;;
12412;SDS011;13877;18.896;-99.222;2023-04-24T09:49:25;16.67;;;9.73;;
12412;SDS011;13877;18.896;-99.222;2023-04-24T09:52:03;25.40;;;10.65;;
12412;SDS011;13877;18.896;-99.222;2023-04-24T09:54:34;19.05;;;10.38;;
12412;SDS011;13877;18.896;-99.222;2023-04-24T09:57:02;26.67;;;10.73;;
12412;SDS011;13877;18.896;-99.222;2023-04-24T09:59:29;19.58;;;10.65;;
12412;SDS011;13877;18.896;-99.222;2023-04-24T10:01:56;27.05;;;9.60;;
12412;SDS011;13877;18.896;-99.222;2023-04-24T10:04:25;26.45;;;10.65;;
12412;SDS011;13877;18.896;-99.222;2023-04-24T10:06:55;21.30;;;10.35;;
12412;SDS011;13877;18.896;-99.222;2023-04-24T10:09:24;19.65;;;10.77;;
12412;SDS011;13877;18.896;-99.222;2023-04-24T10:11:52;22.00;;;10.40;;
12412;SDS011;13877;18.896;-99.222;2023-04-24T10:14:21;23.80;;;9.98;;
12412;SDS011;13877;18.896;-99.222;2023-04-24T10:16:49;25.30;;;11.05;;
12412;SDS011;13877;18.896;-99.222;2023-04-24T10:19:19;19.75;;;9.98;;
12412;SDS011;13877;18.896;-99.222;2023-04-24T10:21:46;30.20;;;11.32;;
12412;SDS011;13877;18.896;-99.222;2023-04-24T10:24:17;21.90;;;11.25;;
12412;SDS011;13877;18.896;-99.222;2023-04-24T10:26:46;21.55;;;10.75;;
12412;SDS011;13877;18.896;-99.222;2023-04-24T10:29:14;26.23;;;11.07;;
12412;SDS011;13877;18.896;-99.222;2023-04-24T10:31:43;19.67;;;10.55;;
12412;SDS011;13877;18.896;-99.222;2023-04-24T10:34:14;18.25;;;10.00;;
12412;SDS011;13877;18.896;-99.222;2023-04-24T10:36:44;24.23;;;10.43;;
12412;SDS011;13877;18.896;-99.222;2023-04-24T10:39:15;27.92;;;10.98;;
12412;SDS011;13877;18.896;-99.222;2023-04-24T10:41:42;22.92;;;10.25;;
12412;SDS011;13877;18.896;-99.222;2023-04-24T10:44:11;20.65;;;11.02;;
12412;SDS011;13877;18.896;-99.222;2023-04-24T10:46:45;20.30;;;10.27;;
12412;SDS011;13877;18.896;-99.222;2023-04-24T10:49:15;22.83;;;10.07;;
12412;SDS011;13877;18.896;-99.222;2023-04-24T10:56:53;27.42;;;10.45;;
12412;SDS011;13877;18.896;-99.222;2023-04-24T10:59:50;23.00;;;10.65;;
12412;SDS011;13877;18.896;-99.222;2023-04-24T11:02:37;23.52;;;11.02;;
12412;SDS011;13877;18.896;-99.222;2023-04-24T11:05:09;22.17;;;11.10;;
12412;SDS011;13877;18.896;-99.222;2023-04-24T11:10:40;21.58;;;10.38;;
12412;SDS011;13877;18.896;-99.222;2023-04-24T11:13:10;25.48;;;11.55;;
12412;SDS011;13877;18.896;-99.222;2023-04-24T11:15:41;18.92;;;10.30;;
12412;SDS011;13877;18.896;-99.222;2023-04-24T11:18:14;21.15;;;10.68;;
12412;SDS011;13877;18.896;-99.222;2023-04-24T11:20:42;25.08;;;10.20;;
12412;SDS011;13877;18.896;-99.222;2023-04-24T11:23:11;25.80;;;11.18;;
12412;SDS011;13877;18.896;-99.222;2023-04-24T11:25:41;25.88;;;10.45;;
12412;SDS011;13877;18.896;-99.222;2023-04-24T11:28:08;22.00;;;10.40;;
12412;SDS011;13877;18.896;-99.222;2023-04-24T11:30:42;24.98;;;10.52;;
12412;SDS011;13877;18.896;-99.222;2023-04-24T11:33:09;23.27;;;11.45;;
12412;SDS011;13877;18.896;-99.222;2023-04-24T11:35:39;16.95;;;10.80;;
12412;SDS011;13877;18.896;-99.222;2023-04-24T11:38:06;28.23;;;11.43;;
12412;SDS011;13877;18.896;-99.222;2023-04-24T11:40:33;25.25;;;10.85;;
12412;SDS011;13877;18.896;-99.222;2023-04-24T11:43:00;22.60;;;10.48;;
12412;SDS011;13877;18.896;-99.222;2023-04-24T11:45:28;23.70;;;10.20;;
12412;SDS011;13877;18.896;-99.222;2023-04-24T11:47:56;21.98;;;11.23;;
12412;SDS011;13877;18.896;-99.222;2023-04-24T11:50:25;23.42;;;10.68;;
12412;SDS011;13877;18.896;-99.222;2023-04-24T11:52:53;20.45;;;10.15;;
12412;SDS011;13877;18.896;-99.222;2023-04-24T11:57:49;100.82;;;11.15;;
12412;SDS011;13877;18.896;-99.222;2023-04-24T12:00:18;27.17;;;10.45;;
12412;SDS011;13877;18.896;-99.222;2023-04-24T12:02:46;19.85;;;10.20;;
12412;SDS011;13877;18.896;-99.222;2023-04-24T12:05:23;25.23;;;9.70;;
12412;SDS011;13877;18.896;-99.222;2023-04-24T12:07:52;25.73;;;9.93;;
12412;SDS011;13877;18.896;-99.222;2023-04-24T12:10:21;21.38;;;10.52;;
12412;SDS011;13877;18.896;-99.222;2023-04-24T12:12:50;25.38;;;10.40;;
12412;SDS011;13877;18.896;-99.222;2023-04-24T12:15:18;20.90;;;9.45;;
12412;SDS011;13877;18.896;-99.222;2023-04-24T12:17:46;22.63;;;9.73;;
12412;SDS011;13877;18.896;-99.222;2023-04-24T12:20:14;25.02;;;11.07;;
12412;SDS011;13877;18.896;-99.222;2023-04-24T12:22:45;33.65;;;9.88;;
12412;SDS011;13877;18.896;-99.222;2023-04-24T12:25:14;17.63;;;10.00;;
12412;SDS011;13877;18.896;-99.222;2023-04-24T12:27:45;23.88;;;9.73;;
12412;SDS011;13877;18.896;-99.222;2023-04-24T12:30:14;27.05;;;10.10;;
12412;SDS011;13877;18.896;-99.222;2023-04-24T12:32:45;26.08;;;10.13;;
12412;SDS011;13877;18.896;-99.222;2023-04-24T12:35:23;19.95;;;10.35;;
12412;SDS011;13877;18.896;-99.222;2023-04-24T12:37:51;16.67;;;8.95;;
12412;SDS011;13877;18.896;-99.222;2023-04-24T12:40:19;24.83;;;10.45;;
12412;SDS011;13877;18.896;-99.222;2023-04-24T12:42:48;22.33;;;10.05;;
12412;SDS011;13877;18.896;-99.222;2023-04-24T12:45:16;22.70;;;10.55;;
12412;SDS011;13877;18.896;-99.222;2023-04-24T12:47:45;23.52;;;11.65;;
12412;SDS011;13877;18.896;-99.222;2023-04-24T12:50:14;24.33;;;11.27;;
12412;SDS011;13877;18.896;-99.222;2023-04-24T12:52:42;30.58;;;10.73;;
12412;SDS011;13877;18.896;-99.222;2023-04-24T12:55:09;22.50;;;11.10;;
12412;SDS011;13877;18.896;-99.222;2023-04-24T12:57:38;20.70;;;9.85;;
12412;SDS011;13877;18.896;-99.222;2023-04-24T13:00:06;29.60;;;10.70;;
12412;SDS011;13877;18.896;-99.222;2023-04-24T13:02:34;27.98;;;11.13;;
12412;SDS011;13877;18.896;-99.222;2023-04-24T13:05:02;23.05;;;10.95;;
12412;SDS011;13877;18.896;-99.222;2023-04-24T13:07:29;23.30;;;11.05;;
12412;SDS011;13877;18.896;-99.222;2023-04-24T13:09:56;24.98;;;10.88;;
12412;SDS011;13877;18.896;-99.222;2023-04-24T13:12:24;31.55;;;10.27;;
12412;SDS011;13877;18.896;-99.222;2023-04-24T13:14:52;20.15;;;9.82;;
12412;SDS011;13877;18.896;-99.222;2023-04-24T13:17:19;25.15;;;10.48;;
12412;SDS011;13877;18.896;-99.222;2023-04-24T13:19:46;24.15;;;11.30;;
12412;SDS011;13877;18.896;-99.222;2023-04-24T13:22:17;23.08;;;11.15;;
12412;SDS011;13877;18.896;-99.222;2023-04-24T13:24:44;28.33;;;10.82;;
12412;SDS011;13877;18.896;-99.222;2023-04-24T13:27:15;28.00;;;11.52;;
12412;SDS011;13877;18.896;-99.222;2023-04-24T13:29:42;30.58;;;10.27;;
12412;SDS011;13877;18.896;-99.222;2023-04-24T13:32:10;25.00;;;10.95;;
12412;SDS011;13877;18.896;-99.222;2023-04-24T13:34:36;23.55;;;10.63;;
12412;SDS011;13877;18.896;-99.222;2023-04-24T13:37:04;22.80;;;10.80;;
12412;SDS011;13877;18.896;-99.222;2023-04-24T13:39:31;29.85;;;11.77;;
12412;SDS011;13877;18.896;-99.222;2023-04-24T13:41:59;25.80;;;10.70;;
12412;SDS011;13877;18.896;-99.222;2023-04-24T13:44:26;27.42;;;11.73;;
12412;SDS011;13877;18.896;-99.222;2023-04-24T13:46:54;23.42;;;11.15;;
12412;SDS011;13877;18.896;-99.222;2023-04-24T13:49:24;24.60;;;11.18;;
12412;SDS011;13877;18.896;-99.222;2023-04-24T13:51:51;27.35;;;11.75;;
12412;SDS011;13877;18.896;-99.222;2023-04-24T13:54:19;32.60;;;11.68;;
12412;SDS011;13877;18.896;-99.222;2023-04-24T13:56:46;30.05;;;12.70;;
12412;SDS011;13877;18.896;-99.222;2023-04-24T13:59:13;27.05;;;13.27;;
12412;SDS011;13877;18.896;-99.222;2023-04-24T14:01:40;30.35;;;12.32;;
12412;SDS011;13877;18.896;-99.222;2023-04-24T14:04:07;29.98;;;14.00;;
12412;SDS011;13877;18.896;-99.222;2023-04-24T14:06:34;44.38;;;15.15;;
12412;SDS011;13877;18.896;-99.222;2023-04-24T14:09:01;39.30;;;15.07;;
12412;SDS011;13877;18.896;-99.222;2023-04-24T14:11:28;36.92;;;16.38;;
12412;SDS011;13877;18.896;-99.222;2023-04-24T14:13:55;55.70;;;19.77;;
12412;SDS011;13877;18.896;-99.222;2023-04-24T14:16:22;43.47;;;21.90;;
12412;SDS011;13877;18.896;-99.222;2023-04-24T14:18:49;51.05;;;20.65;;